createdAt,value
2023-04-01T00:00:39.353Z,7.40
2023-04-01T00:03:09.352Z,7.41
2023-04-01T00:05:38.940Z,7.37
2023-04-01T00:08:08.806Z,7.34
2023-04-01T00:10:44.145Z,7.38
2023-04-01T00:13:14.139Z,7.44
2023-04-01T00:15:45.017Z,7.47
2023-04-01T00:18:15.467Z,7.44
2023-04-01T00:20:48.377Z,7.47
2023-04-01T00:23:18.153Z,7.48
2023-04-01T00:25:52.801Z,7.57
2023-04-01T00:28:23.859Z,7.61
2023-04-01T00:30:53.623Z,7.65
2023-04-01T00:33:23.175Z,7.70
2023-04-01T00:35:52.800Z,7.69
2023-04-01T00:38:22.983Z,7.66
2023-04-01T00:41:01.387Z,7.69
2023-04-01T00:43:31.525Z,7.68
2023-04-01T00:46:01.426Z,7.67
2023-04-01T00:48:34.470Z,7.66
2023-04-01T00:51:08.514Z,7.62
2023-04-01T00:53:43.036Z,7.61
2023-04-01T00:56:18.827Z,7.62
2023-04-01T00:58:55.098Z,7.59
2023-04-01T01:01:27.577Z,7.57
2023-04-01T01:03:57.327Z,7.55
2023-04-01T01:06:42.945Z,7.55
2023-04-01T01:09:34.466Z,7.49
2023-04-01T01:12:14.076Z,7.45
2023-04-01T01:14:55.544Z,7.45
2023-04-01T01:17:36.341Z,7.47
2023-04-01T01:20:36.542Z,7.43
2023-04-01T01:23:43.752Z,7.42
2023-04-01T01:26:38.376Z,7.32
2023-04-01T01:29:21.664Z,7.34
2023-04-01T01:32:02.600Z,7.35
2023-04-01T01:34:38.289Z,7.31
2023-04-01T01:37:15.782Z,7.30
2023-04-01T01:39:48.580Z,7.29
2023-04-01T01:42:22.535Z,7.27
2023-04-01T01:44:53.811Z,7.29
2023-04-01T01:47:26.145Z,7.37
2023-04-01T01:49:58.051Z,7.37
2023-04-01T01:52:32.031Z,7.37
2023-04-01T01:55:02.160Z,7.34
2023-04-01T01:57:34.446Z,7.39
2023-04-01T02:00:14.039Z,7.40
2023-04-01T02:02:44.400Z,7.41
2023-04-01T02:05:19.363Z,7.41
2023-04-01T02:07:56.647Z,7.42
2023-04-01T02:10:29.596Z,7.40
2023-04-01T02:13:05.054Z,7.42
2023-04-01T02:15:41.435Z,7.41
2023-04-01T02:18:11.905Z,7.42
2023-04-01T02:20:42.887Z,7.44
2023-04-01T02:23:15.666Z,7.43
2023-04-01T02:25:46.906Z,7.47
2023-04-01T02:28:20.612Z,7.44
2023-04-01T02:30:51.999Z,7.48
2023-04-01T02:33:23.212Z,7.48
2023-04-01T02:35:53.116Z,7.49
2023-04-01T02:38:25.712Z,7.53
2023-04-01T02:41:01.608Z,7.55
2023-04-01T02:43:31.381Z,7.54
2023-04-01T02:46:01.096Z,7.58
2023-04-01T02:48:30.894Z,7.59
2023-04-01T02:51:00.737Z,7.64
2023-04-01T02:53:32.995Z,7.61
2023-04-01T02:56:02.544Z,7.64
2023-04-01T02:58:32.104Z,7.69
2023-04-01T03:01:04.104Z,7.73
2023-04-01T03:03:35.853Z,7.72
2023-04-01T03:06:09.426Z,7.75
2023-04-01T03:08:42.087Z,7.79
2023-04-01T03:11:16.259Z,7.80
2023-04-01T03:13:46.178Z,7.81
2023-04-01T03:16:17.195Z,7.78
2023-04-01T03:18:47.077Z,7.80
2023-04-01T03:21:18.525Z,7.87
2023-04-01T03:23:50.922Z,7.89
2023-04-01T03:26:22.645Z,7.84
2023-04-01T03:28:52.568Z,7.83
2023-04-01T03:31:23.624Z,7.79
2023-04-01T03:33:53.510Z,7.77
2023-04-01T03:36:23.177Z,7.76
2023-04-01T03:38:55.551Z,7.75
2023-04-01T03:41:27.465Z,7.76
2023-04-01T03:43:57.684Z,7.76
2023-04-01T03:46:27.293Z,7.73
2023-04-01T03:48:56.869Z,7.72
2023-04-01T03:51:26.958Z,7.68
2023-04-01T03:53:59.214Z,7.60
2023-04-01T03:56:28.800Z,7.52
2023-04-01T03:58:58.356Z,7.47
2023-04-01T04:01:28.795Z,7.44
2023-04-01T04:03:58.333Z,7.43
2023-04-01T04:06:28.694Z,7.43
2023-04-01T04:09:01.021Z,7.43
2023-04-01T04:11:30.929Z,7.40
2023-04-01T04:14:00.582Z,7.38
2023-04-01T04:16:32.066Z,7.33
2023-04-01T04:19:01.697Z,7.29
2023-04-01T04:21:31.273Z,7.29
2023-04-01T04:24:04.101Z,7.25
2023-04-01T04:26:33.740Z,7.26
2023-04-01T04:29:03.633Z,7.24
2023-04-01T04:31:33.255Z,7.24
2023-04-01T04:34:07.506Z,7.25
2023-04-01T04:36:37.306Z,7.24
2023-04-01T04:39:09.449Z,7.25
2023-04-01T04:41:41.642Z,7.25
2023-04-01T04:44:11.369Z,7.25
2023-04-01T04:46:41.009Z,7.23
2023-04-01T04:49:11.242Z,7.22
2023-04-01T04:51:40.922Z,7.25
2023-04-01T04:54:13.454Z,7.24
2023-04-01T04:56:43.136Z,7.22
2023-04-01T04:59:13.732Z,7.22
2023-04-01T05:01:43.379Z,7.29
2023-04-01T05:04:12.967Z,7.26
2023-04-01T05:06:42.510Z,7.27
2023-04-01T05:09:14.637Z,7.28
2023-04-01T05:11:44.223Z,7.28
2023-04-01T05:14:17.236Z,7.30
2023-04-01T05:16:47.212Z,7.28
2023-04-01T05:19:16.970Z,7.28
2023-04-01T05:21:46.793Z,7.31
2023-04-01T05:24:18.911Z,7.31
2023-04-01T05:26:48.532Z,7.35
2023-04-01T05:29:18.120Z,7.34
2023-04-01T05:31:47.624Z,7.40
2023-04-01T05:34:20.284Z,7.37
2023-04-01T05:36:49.855Z,7.38
2023-04-01T05:39:22.040Z,7.40
2023-04-01T05:41:51.611Z,7.43
2023-04-01T05:44:21.892Z,7.48
2023-04-01T05:46:51.413Z,7.41
2023-04-01T05:49:21.212Z,7.41
2023-04-01T05:51:50.845Z,7.48
2023-04-01T05:54:23.367Z,7.46
2023-04-01T05:56:53.134Z,7.42
2023-04-01T05:59:22.686Z,7.45
2023-04-01T06:01:52.467Z,7.45
2023-04-01T06:04:24.556Z,7.48
2023-04-01T06:06:54.683Z,7.48
2023-04-01T06:09:31.451Z,7.47
2023-04-01T06:12:21.941Z,7.47
2023-04-01T06:15:05.106Z,7.51
2023-04-01T06:17:50.841Z,7.52
2023-04-01T06:20:29.424Z,7.49
2023-04-01T06:23:14.980Z,7.52
2023-04-01T06:26:06.786Z,7.55
2023-04-01T06:28:52.204Z,7.56
2023-04-01T06:31:37.233Z,7.58
2023-04-01T06:34:42.792Z,7.58
2023-04-01T06:37:24.304Z,7.58
2023-04-01T06:40:17.731Z,7.61
2023-04-01T06:43:02.402Z,7.64
2023-04-01T06:45:40.918Z,7.68
2023-04-01T06:48:32.537Z,7.66
2023-04-01T06:51:12.756Z,7.67
2023-04-01T06:53:51.469Z,7.76
2023-04-01T06:56:23.177Z,7.79
2023-04-01T06:58:59.811Z,7.84
2023-04-01T07:01:34.927Z,7.92
2023-04-01T07:04:08.994Z,7.92
2023-04-01T07:06:42.169Z,7.93
2023-04-01T07:09:17.045Z,7.97
2023-04-01T07:11:47.046Z,8.01
2023-04-01T07:14:24.664Z,8.02
2023-04-01T07:17:02.647Z,8.08
2023-04-01T07:19:38.007Z,8.07
2023-04-01T07:22:10.423Z,8.05
2023-04-01T07:24:43.319Z,8.06
2023-04-01T07:27:15.019Z,8.08
2023-04-01T07:29:47.152Z,8.12
2023-04-01T07:32:31.330Z,8.19
2023-04-01T07:35:17.159Z,8.22
2023-04-01T07:37:56.713Z,8.23
2023-04-01T07:40:34.519Z,8.25
2023-04-01T07:43:22.423Z,8.23
2023-04-01T07:46:04.181Z,8.23
2023-04-01T07:48:41.905Z,8.21
2023-04-01T07:51:17.414Z,8.27
2023-04-01T07:53:54.070Z,8.32
2023-04-01T07:56:31.392Z,8.43
2023-04-01T07:59:10.872Z,8.57
2023-04-01T08:01:48.014Z,8.79
2023-04-01T08:04:35.038Z,8.94
2023-04-01T08:07:11.984Z,9.18
2023-04-01T08:09:52.121Z,9.10
2023-04-01T08:12:33.286Z,9.15
2023-04-01T08:15:12.274Z,9.14
2023-04-01T08:17:56.483Z,9.10
2023-04-01T08:20:34.945Z,9.06
2023-04-01T08:23:10.637Z,9.04
2023-04-01T08:25:43.385Z,9.10
2023-04-01T08:28:21.320Z,9.20
2023-04-01T08:30:55.251Z,9.20
2023-04-01T08:33:30.222Z,9.25
2023-04-01T08:36:05.557Z,9.32
2023-04-01T08:38:38.725Z,9.42
2023-04-01T08:41:48.843Z,9.50
2023-04-01T08:45:01.502Z,9.55
2023-04-01T08:48:01.837Z,9.64
2023-04-01T08:51:12.219Z,9.51
2023-04-01T08:54:01.269Z,9.59
2023-04-01T08:56:37.493Z,9.77
2023-04-01T08:59:46.819Z,9.63
2023-04-01T09:02:45.591Z,9.94
2023-04-01T09:05:35.740Z,10.06
2023-04-01T09:08:21.164Z,10.14
2023-04-01T09:11:15.259Z,10.35
2023-04-01T09:14:10.157Z,10.32
2023-04-01T09:17:19.331Z,10.54
2023-04-01T09:20:06.051Z,10.77
2023-04-01T09:22:48.721Z,10.74
2023-04-01T09:25:48.331Z,10.99
2023-04-01T09:28:23.504Z,10.94
2023-04-01T09:31:14.387Z,10.89
2023-04-01T09:34:09.302Z,10.85
2023-04-01T09:36:49.569Z,10.72
2023-04-01T09:39:40.072Z,10.52
2023-04-01T09:42:45.554Z,10.61
2023-04-01T09:45:31.874Z,10.34
2023-04-01T09:48:07.302Z,10.27
2023-04-01T09:50:47.444Z,10.25
2023-04-01T09:53:38.098Z,10.38
2023-04-01T09:56:43.604Z,10.38
2023-04-01T09:59:47.755Z,10.32
2023-04-01T10:02:59.140Z,10.57
2023-04-01T10:06:13.130Z,10.46
2023-04-01T10:09:21.394Z,10.98
2023-04-01T10:12:15.618Z,11.00
2023-04-01T10:15:21.165Z,10.93
2023-04-01T10:18:37.111Z,10.73
2023-04-01T10:21:26.615Z,11.05
2023-04-01T10:24:22.198Z,9.94
2023-04-01T10:27:19.934Z,9.46
2023-04-01T10:30:33.136Z,9.16
2023-04-01T10:33:27.685Z,8.90
2023-04-01T10:36:51.031Z,8.93
2023-04-01T10:39:37.820Z,8.88
2023-04-01T10:42:49.577Z,8.89
2023-04-01T10:45:50.122Z,8.84
2023-04-01T10:48:54.531Z,8.76
2023-04-01T10:51:52.870Z,8.67
2023-04-01T10:54:33.334Z,8.75
2023-04-01T10:57:06.359Z,8.79
2023-04-01T10:59:55.359Z,8.83
2023-04-01T11:03:04.371Z,8.81
2023-04-01T11:06:02.407Z,8.94
2023-04-01T11:09:14.982Z,9.03
2023-04-01T11:12:28.071Z,9.28
2023-04-01T11:15:27.747Z,9.73
2023-04-01T11:18:17.274Z,9.88
2023-04-01T11:21:16.826Z,10.59
2023-04-01T11:24:04.897Z,11.11
2023-04-01T11:26:51.474Z,12.12
2023-04-01T11:29:59.141Z,12.77
2023-04-01T11:32:43.921Z,14.07
2023-04-01T11:35:39.730Z,12.78
2023-04-01T11:38:23.487Z,11.72
2023-04-01T11:41:03.787Z,11.40
2023-04-01T11:43:38.710Z,10.74
2023-04-01T11:46:14.533Z,10.31
2023-04-01T11:49:06.704Z,10.27
2023-04-01T11:51:59.858Z,10.01
2023-04-01T11:54:48.012Z,9.80
2023-04-01T11:57:47.391Z,10.05
2023-04-01T12:00:39.435Z,10.09
2023-04-01T12:03:32.314Z,10.35
2023-04-01T12:06:08.381Z,10.47
2023-04-01T12:08:48.124Z,10.52
2023-04-01T12:11:25.232Z,10.46
2023-04-01T12:14:06.234Z,10.62
2023-04-01T12:17:01.546Z,10.65
2023-04-01T12:19:41.946Z,10.90
2023-04-01T12:22:36.524Z,10.86
2023-04-01T12:25:22.530Z,11.14
2023-04-01T12:28:04.075Z,11.66
2023-04-01T12:30:59.595Z,12.10
2023-04-01T12:33:46.531Z,12.39
2023-04-01T12:36:38.474Z,12.36
2023-04-01T12:39:26.694Z,12.17
2023-04-01T12:42:03.739Z,12.37
2023-04-01T12:44:50.851Z,12.37
2023-04-01T12:47:57.519Z,12.47
2023-04-01T12:50:40.565Z,12.20
2023-04-01T12:53:26.310Z,12.50
2023-04-01T12:55:56.396Z,12.92
2023-04-01T12:58:58.410Z,13.05
2023-04-01T13:01:35.701Z,13.36
2023-04-01T13:04:48.685Z,13.67
2023-04-01T13:07:47.338Z,13.81
2023-04-01T13:10:32.005Z,13.41
2023-04-01T13:13:18.519Z,13.04
2023-04-01T13:15:51.342Z,13.11
2023-04-01T13:18:30.914Z,14.00
2023-04-01T13:21:13.232Z,14.23
2023-04-01T13:23:59.930Z,13.92
2023-04-01T13:26:38.267Z,13.54
2023-04-01T13:29:15.071Z,13.55
2023-04-01T13:32:09.835Z,13.42
2023-04-01T13:34:55.158Z,12.79
2023-04-01T13:37:52.055Z,12.26
2023-04-01T13:40:46.794Z,11.98
2023-04-01T13:43:26.137Z,12.01
2023-04-01T13:46:20.319Z,11.93
2023-04-01T13:49:06.738Z,12.01
2023-04-01T13:51:46.002Z,11.88
2023-04-01T13:54:50.474Z,11.67
2023-04-01T13:57:39.892Z,11.65
2023-04-01T14:00:28.911Z,11.30
2023-04-01T14:03:33.996Z,11.20
2023-04-01T14:06:31.325Z,11.46
2023-04-01T14:09:30.449Z,11.36
2023-04-01T14:12:12.262Z,11.56
2023-04-01T14:14:56.721Z,11.79
2023-04-01T14:17:45.709Z,11.75
2023-04-01T14:20:44.626Z,11.76
2023-04-01T14:23:39.964Z,11.94
2023-04-01T14:26:26.507Z,12.11
2023-04-01T14:29:03.959Z,12.23
2023-04-01T14:31:51.407Z,12.09
2023-04-01T14:34:36.577Z,12.03
2023-04-01T14:37:16.957Z,11.80
2023-04-01T14:40:09.683Z,11.50
2023-04-01T14:42:58.532Z,10.86
2023-04-01T14:45:50.008Z,10.82
2023-04-01T14:48:33.049Z,10.73
2023-04-01T14:51:13.286Z,10.75
2023-04-01T14:53:47.536Z,10.75
2023-04-01T14:56:37.743Z,10.62
2023-04-01T14:59:12.974Z,10.46
2023-04-01T15:01:51.608Z,10.39
2023-04-01T15:04:47.459Z,10.04
2023-04-01T15:07:30.944Z,9.85
2023-04-01T15:10:20.820Z,9.76
2023-04-01T15:13:00.478Z,9.56
2023-04-01T15:15:46.330Z,9.37
2023-04-01T15:18:25.945Z,9.25
2023-04-01T15:21:28.766Z,9.20
2023-04-01T15:24:03.804Z,9.18
2023-04-01T15:26:54.393Z,9.12
2023-04-01T15:29:42.601Z,9.09
2023-04-01T15:32:20.867Z,9.07
2023-04-01T15:35:03.846Z,8.86
2023-04-01T15:37:42.191Z,8.93
2023-04-01T15:40:26.598Z,8.80
2023-04-01T15:43:08.984Z,8.77
2023-04-01T15:45:49.579Z,8.77
2023-04-01T15:48:35.655Z,8.78
2023-04-01T15:51:43.173Z,8.68
2023-04-01T15:54:36.894Z,8.74
2023-04-01T15:57:19.171Z,8.68
2023-04-01T16:00:11.947Z,8.69
2023-04-01T16:02:50.994Z,8.69
2023-04-01T16:05:34.251Z,8.69
2023-04-01T16:08:36.506Z,8.65
2023-04-01T16:11:22.676Z,8.62
2023-04-01T16:14:02.325Z,8.58
2023-04-01T16:16:50.180Z,8.58
2023-04-01T16:19:41.146Z,8.54
2023-04-01T16:22:17.459Z,8.55
2023-04-01T16:24:55.390Z,8.57
2023-04-01T16:27:31.596Z,8.51
2023-04-01T16:30:07.063Z,8.54
2023-04-01T16:32:45.461Z,8.59
2023-04-01T16:35:28.265Z,8.56
2023-04-01T16:38:07.787Z,8.53
2023-04-01T16:40:47.184Z,8.54
2023-04-01T16:43:25.444Z,8.48
2023-04-01T16:46:16.266Z,8.47
2023-04-01T16:49:01.702Z,8.46
2023-04-01T16:51:40.643Z,8.46
2023-04-01T16:54:17.174Z,8.41
2023-04-01T16:56:54.253Z,8.41
2023-04-01T16:59:28.344Z,8.40
2023-04-01T17:02:05.633Z,8.38
2023-04-01T17:04:42.309Z,8.36
2023-04-01T17:07:24.377Z,8.32
2023-04-01T17:10:05.666Z,8.30
2023-04-01T17:12:52.757Z,8.30
2023-04-01T17:15:28.818Z,8.27
2023-04-01T17:18:02.694Z,8.26
2023-04-01T17:20:47.214Z,8.25
2023-04-01T17:23:24.058Z,8.26
2023-04-01T17:26:14.729Z,8.28
2023-04-01T17:28:54.387Z,8.30
2023-04-01T17:31:46.313Z,8.30
2023-04-01T17:34:34.941Z,8.30
2023-04-01T17:37:20.862Z,8.30
2023-04-01T17:40:01.329Z,8.31
2023-04-01T17:42:43.667Z,8.19
2023-04-01T17:45:25.986Z,8.18
2023-04-01T17:48:07.267Z,8.14
2023-04-01T17:50:54.729Z,8.10
2023-04-01T17:53:39.051Z,8.04
2023-04-01T17:56:25.956Z,7.94
2023-04-01T17:59:03.258Z,7.90
2023-04-01T18:01:58.860Z,7.82
2023-04-01T18:04:41.892Z,7.78
2023-04-01T18:07:32.184Z,7.77
2023-04-01T18:10:17.633Z,7.74
2023-04-01T18:13:09.502Z,7.68
2023-04-01T18:15:46.291Z,7.66
2023-04-01T18:18:39.321Z,7.62
2023-04-01T18:21:16.326Z,7.55
2023-04-01T18:24:01.732Z,7.52
2023-04-01T18:26:35.896Z,7.45
2023-04-01T18:29:15.090Z,7.40
2023-04-01T18:31:49.530Z,7.39
2023-04-01T18:34:41.737Z,7.35
2023-04-01T18:37:25.495Z,7.29
2023-04-01T18:39:59.784Z,7.27
2023-04-01T18:42:41.488Z,7.30
2023-04-01T18:45:22.760Z,7.27
2023-04-01T18:48:03.792Z,7.25
2023-04-01T18:50:42.474Z,7.23
2023-04-01T18:53:23.705Z,7.21
2023-04-01T18:55:57.805Z,7.15
2023-04-01T18:58:33.074Z,7.16
2023-04-01T19:01:24.518Z,7.16
2023-04-01T19:04:06.840Z,7.18
2023-04-01T19:06:48.938Z,7.16
2023-04-01T19:09:26.540Z,7.12
2023-04-01T19:12:17.779Z,7.10
2023-04-01T19:14:57.633Z,7.09
2023-04-01T19:17:45.946Z,7.09
2023-04-01T19:20:25.150Z,7.07
2023-04-01T19:23:21.858Z,7.03
2023-04-01T19:25:54.856Z,7.00
2023-04-01T19:28:35.898Z,6.97
2023-04-01T19:31:20.899Z,6.94
2023-04-01T19:34:04.030Z,6.94
2023-04-01T19:36:40.203Z,6.93
2023-04-01T19:39:17.292Z,6.92
2023-04-01T19:41:50.444Z,6.91
2023-04-01T19:44:34.240Z,6.91
2023-04-01T19:47:11.769Z,6.90
2023-04-01T19:49:52.344Z,6.89
2023-04-01T19:52:26.814Z,6.86
2023-04-01T19:55:03.213Z,6.86
2023-04-01T19:57:42.463Z,6.85
2023-04-01T20:00:26.060Z,6.84
2023-04-01T20:03:16.180Z,6.84
2023-04-01T20:05:54.017Z,6.81
2023-04-01T20:08:37.068Z,6.82
2023-04-01T20:11:25.793Z,6.83
2023-04-01T20:14:05.655Z,6.80
2023-04-01T20:16:58.483Z,6.78
2023-04-01T20:19:37.646Z,6.75
2023-04-01T20:22:22.858Z,6.76
2023-04-01T20:24:53.047Z,6.77
2023-04-01T20:27:29.989Z,6.74
2023-04-01T20:30:16.861Z,6.75
2023-04-01T20:33:05.806Z,6.72
2023-04-01T20:35:46.486Z,6.67
2023-04-01T20:38:39.049Z,6.61
2023-04-01T20:41:17.100Z,6.57
2023-04-01T20:44:01.848Z,6.54
2023-04-01T20:46:39.168Z,6.52
2023-04-01T20:49:44.603Z,6.48
2023-04-01T20:52:37.201Z,6.47
2023-04-01T20:55:26.341Z,6.45
2023-04-01T20:58:10.502Z,6.47
2023-04-01T21:00:56.780Z,6.44
2023-04-01T21:03:45.599Z,6.41
2023-04-01T21:06:27.936Z,6.39
2023-04-01T21:09:22.085Z,6.33
2023-04-01T21:12:01.558Z,6.34
2023-04-01T21:14:53.889Z,6.29
2023-04-01T21:17:37.631Z,6.21
2023-04-01T21:20:20.807Z,6.18
2023-04-01T21:23:04.017Z,6.19
2023-04-01T21:25:58.157Z,6.12
2023-04-01T21:28:48.882Z,6.10
2023-04-01T21:31:54.115Z,6.09
2023-04-01T21:34:45.874Z,6.04
2023-04-01T21:37:39.696Z,6.02
2023-04-01T21:40:38.338Z,5.99
2023-04-01T21:43:25.122Z,5.99
2023-04-01T21:46:30.034Z,5.98
2023-04-01T21:49:18.988Z,5.99
2023-04-01T21:52:18.727Z,5.92
2023-04-01T21:55:27.290Z,5.93
2023-04-01T21:58:31.509Z,5.90
2023-04-01T22:01:13.880Z,5.84
2023-04-01T22:04:04.933Z,5.83
2023-04-01T22:06:41.429Z,5.81
2023-04-01T22:09:22.009Z,5.77
2023-04-01T22:11:58.535Z,5.78
2023-04-01T22:14:35.352Z,5.71
2023-04-01T22:17:14.769Z,5.71
2023-04-01T22:19:51.932Z,5.69
2023-04-01T22:22:26.024Z,5.70
2023-04-01T22:25:08.140Z,5.69
2023-04-01T22:27:46.198Z,5.66
2023-04-01T22:30:23.080Z,5.68
2023-04-01T22:32:56.829Z,5.67
2023-04-01T22:35:39.509Z,5.66
2023-04-01T22:38:24.886Z,5.64
2023-04-01T22:41:04.600Z,5.63
2023-04-01T22:43:41.554Z,5.65
2023-04-01T22:46:30.457Z,5.60
2023-04-01T22:49:10.654Z,5.61
2023-04-01T22:51:46.956Z,5.62
2023-04-01T22:54:25.623Z,5.62
2023-04-01T22:57:01.203Z,5.60
2023-04-01T22:59:38.768Z,5.60
2023-04-01T23:02:15.056Z,5.61
2023-04-01T23:04:47.643Z,5.48
2023-04-01T23:07:38.064Z,5.47
2023-04-01T23:10:15.869Z,5.42
2023-04-01T23:12:49.504Z,5.37
2023-04-01T23:15:20.266Z,5.33
2023-04-01T23:17:57.978Z,5.30
2023-04-01T23:20:36.409Z,5.22
2023-04-01T23:23:30.844Z,5.22
2023-04-01T23:26:09.473Z,5.10
2023-04-01T23:28:51.639Z,5.06
2023-04-01T23:31:38.306Z,5.04
2023-04-01T23:34:24.199Z,4.92
2023-04-01T23:36:56.911Z,4.86
2023-04-01T23:39:30.432Z,4.80
2023-04-01T23:42:05.515Z,4.74
2023-04-01T23:44:39.293Z,4.68
2023-04-01T23:47:11.535Z,4.65
2023-04-01T23:49:44.118Z,4.59
2023-04-01T23:52:17.843Z,4.53
2023-04-01T23:54:53.305Z,4.48
2023-04-01T23:57:26.608Z,4.44
